sensor_id;sensor_type;location;lat;lon;timestamp;pressure;altitude;pressure_sealevel;temperature;humidity
68941;BME280;55982;51.476;7.552;2023-03-26T00:00:42;98906.81;;;7.76;100.00
68941;BME280;55982;51.476;7.552;2023-03-26T00:03:11;98915.50;;;7.75;100.00
68941;BME280;55982;51.476;7.552;2023-03-26T00:05:38;98911.47;;;7.91;100.00
68941;BME280;55982;51.476;7.552;2023-03-26T00:08:04;98914.91;;;7.91;100.00
68941;BME280;55982;51.476;7.552;2023-03-26T00:10:36;98917.25;;;7.97;100.00
68941;BME280;55982;51.476;7.552;2023-03-26T00:13:03;98921.75;;;7.94;100.00
68941;BME280;55982;51.476;7.552;2023-03-26T00:15:28;98908.41;;;7.80;100.00
68941;BME280;55982;51.476;7.552;2023-03-26T00:17:53;98915.97;;;7.86;100.00
68941;BME280;55982;51.476;7.552;2023-03-26T00:20:21;98913.25;;;7.89;100.00
68941;BME280;55982;51.476;7.552;2023-03-26T00:22:47;98902.84;;;7.89;100.00
68941;BME280;55982;51.476;7.552;2023-03-26T00:25:12;98916.44;;;7.97;100.00
68941;BME280;55982;51.476;7.552;2023-03-26T00:27:39;98916.53;;;7.94;100.00
68941;BME280;55982;51.476;7.552;2023-03-26T00:30:05;98922.53;;;7.96;100.00
68941;BME280;55982;51.476;7.552;2023-03-26T00:32:30;98911.97;;;8.00;100.00
68941;BME280;55982;51.476;7.552;2023-03-26T00:34:56;98907.72;;;7.98;100.00
68941;BME280;55982;51.476;7.552;2023-03-26T00:37:22;98911.00;;;8.03;100.00
68941;BME280;55982;51.476;7.552;2023-03-26T00:39:54;98910.09;;;8.04;100.00
68941;BME280;55982;51.476;7.552;2023-03-26T00:42:27;98901.53;;;8.00;100.00
68941;BME280;55982;51.476;7.552;2023-03-26T00:44:53;98904.09;;;8.02;100.00
68941;BME280;55982;51.476;7.552;2023-03-26T00:47:27;98897.19;;;8.01;100.00
68941;BME280;55982;51.476;7.552;2023-03-26T00:49:53;98897.06;;;8.04;100.00
68941;BME280;55982;51.476;7.552;2023-03-26T00:52:20;98900.63;;;8.01;100.00
68941;BME280;55982;51.476;7.552;2023-03-26T00:54:46;98894.47;;;8.04;100.00
68941;BME280;55982;51.476;7.552;2023-03-26T00:57:13;98900.34;;;8.09;100.00
68941;BME280;55982;51.476;7.552;2023-03-26T00:59:39;98895.03;;;8.12;100.00
68941;BME280;55982;51.476;7.552;2023-03-26T01:02:06;98892.19;;;8.18;100.00
68941;BME280;55982;51.476;7.552;2023-03-26T01:04:35;98886.06;;;8.19;100.00
68941;BME280;55982;51.476;7.552;2023-03-26T01:07:10;98876.66;;;8.15;100.00
68941;BME280;55982;51.476;7.552;2023-03-26T01:09:41;98875.06;;;8.11;100.00
68941;BME280;55982;51.476;7.552;2023-03-26T01:12:12;98877.81;;;8.08;100.00
68941;BME280;55982;51.476;7.552;2023-03-26T01:14:41;98874.41;;;8.06;100.00
68941;BME280;55982;51.476;7.552;2023-03-26T01:17:07;98874.41;;;8.06;100.00
68941;BME280;55982;51.476;7.552;2023-03-26T01:22:24;98862.41;;;8.02;100.00
68941;BME280;55982;51.476;7.552;2023-03-26T01:24:50;98865.09;;;8.00;100.00
68941;BME280;55982;51.476;7.552;2023-03-26T01:38:32;98853.44;;;8.09;100.00
68941;BME280;55982;51.476;7.552;2023-03-26T01:41:04;98850.06;;;8.07;100.00
68941;BME280;55982;51.476;7.552;2023-03-26T01:46:05;98841.44;;;8.05;100.00
68941;BME280;55982;51.476;7.552;2023-03-26T01:48:38;98840.44;;;8.09;100.00
68941;BME280;55982;51.476;7.552;2023-03-26T01:51:05;98849.72;;;8.16;100.00
68941;BME280;55982;51.476;7.552;2023-03-26T01:53:36;98838.38;;;8.17;100.00
68941;BME280;55982;51.476;7.552;2023-03-26T01:59:28;98834.66;;;8.24;100.00
68941;BME280;55982;51.476;7.552;2023-03-26T02:07:25;98833.09;;;8.18;100.00
68941;BME280;55982;51.476;7.552;2023-03-26T02:09:58;98829.72;;;8.16;100.00
68941;BME280;55982;51.476;7.552;2023-03-26T02:12:26;98821.84;;;8.18;100.00
68941;BME280;55982;51.476;7.552;2023-03-26T02:14:53;98821.25;;;8.11;100.00
68941;BME280;55982;51.476;7.552;2023-03-26T02:17:19;98821.38;;;8.08;100.00
68941;BME280;55982;51.476;7.552;2023-03-26T02:19:48;98814.88;;;7.97;100.00
68941;BME280;55982;51.476;7.552;2023-03-26T02:22:14;98811.25;;;8.01;100.00
68941;BME280;55982;51.476;7.552;2023-03-26T02:24:43;98808.66;;;8.01;100.00
68941;BME280;55982;51.476;7.552;2023-03-26T02:27:09;98805.25;;;7.99;100.00
68941;BME280;55982;51.476;7.552;2023-03-26T02:29:36;98801.00;;;7.96;100.00
68941;BME280;55982;51.476;7.552;2023-03-26T02:32:08;98800.88;;;7.99;100.00
68941;BME280;55982;51.476;7.552;2023-03-26T02:34:37;98797.53;;;7.96;100.00
68941;BME280;55982;51.476;7.552;2023-03-26T02:37:02;98789.66;;;7.97;100.00
68941;BME280;55982;51.476;7.552;2023-03-26T02:39:28;98783.72;;;7.94;100.00
68941;BME280;55982;51.476;7.552;2023-03-26T02:41:53;98785.44;;;7.95;100.00
68941;BME280;55982;51.476;7.552;2023-03-26T02:44:19;98786.56;;;7.88;100.00
68941;BME280;55982;51.476;7.552;2023-03-26T02:46:44;98783.19;;;7.86;100.00
68941;BME280;55982;51.476;7.552;2023-03-26T02:49:10;98786.72;;;7.85;100.00
68941;BME280;55982;51.476;7.552;2023-03-26T02:51:38;98783.38;;;7.81;100.00
68941;BME280;55982;51.476;7.552;2023-03-26T02:54:04;98782.69;;;7.76;100.00
68941;BME280;55982;51.476;7.552;2023-03-26T02:56:31;98778.69;;;7.68;100.00
68941;BME280;55982;51.476;7.552;2023-03-26T02:58:57;98775.53;;;7.60;100.00
68941;BME280;55982;51.476;7.552;2023-03-26T03:01:23;98768.97;;;7.50;100.00
68941;BME280;55982;51.476;7.552;2023-03-26T03:03:48;98771.63;;;7.48;100.00
68941;BME280;55982;51.476;7.552;2023-03-26T03:06:15;98774.19;;;7.50;100.00
68941;BME280;55982;51.476;7.552;2023-03-26T03:08:44;98768.97;;;7.50;100.00
68941;BME280;55982;51.476;7.552;2023-03-26T03:11:11;98769.53;;;7.58;100.00
68941;BME280;55982;51.476;7.552;2023-03-26T03:13:37;98777.25;;;7.61;100.00
68941;BME280;55982;51.476;7.552;2023-03-26T03:16:02;98768.16;;;7.71;100.00
68941;BME280;55982;51.476;7.552;2023-03-26T03:18:28;98764.28;;;7.81;100.00
68941;BME280;55982;51.476;7.552;2023-03-26T03:20:53;98756.31;;;7.85;100.00
68941;BME280;55982;51.476;7.552;2023-03-26T03:23:19;98755.22;;;7.91;100.00
68941;BME280;55982;51.476;7.552;2023-03-26T03:25:45;98756.91;;;7.92;100.00
68941;BME280;55982;51.476;7.552;2023-03-26T03:28:11;98744.56;;;7.97;100.00
68941;BME280;55982;51.476;7.552;2023-03-26T03:30:38;98735.84;;;7.98;100.00
68941;BME280;55982;51.476;7.552;2023-03-26T03:33:04;98735.97;;;7.95;100.00
68941;BME280;55982;51.476;7.552;2023-03-26T03:35:30;98732.94;;;7.84;100.00
68941;BME280;55982;51.476;7.552;2023-03-26T03:37:57;98731.94;;;7.65;100.00
68941;BME280;55982;51.476;7.552;2023-03-26T03:40:23;98725.53;;;7.52;100.00
68941;BME280;55982;51.476;7.552;2023-03-26T03:42:48;98727.94;;;7.34;100.00
68941;BME280;55982;51.476;7.552;2023-03-26T03:45:13;98725.75;;;7.24;100.00
68941;BME280;55982;51.476;7.552;2023-03-26T03:47:39;98731.16;;;7.18;100.00
68941;BME280;55982;51.476;7.552;2023-03-26T03:50:05;98726.03;;;7.16;100.00
68941;BME280;55982;51.476;7.552;2023-03-26T03:52:31;98728.06;;;7.08;100.00
68941;BME280;55982;51.476;7.552;2023-03-26T03:54:57;98723.88;;;7.04;100.00
68941;BME280;55982;51.476;7.552;2023-03-26T03:57:25;98726.63;;;7.00;100.00
68941;BME280;55982;51.476;7.552;2023-03-26T03:59:51;98725.03;;;6.96;100.00
68941;BME280;55982;51.476;7.552;2023-03-26T04:02:16;98719.00;;;6.95;100.00
68941;BME280;55982;51.476;7.552;2023-03-26T04:04:52;98723.06;;;7.02;100.00
68941;BME280;55982;51.476;7.552;2023-03-26T04:07:18;98716.97;;;7.03;100.00
68941;BME280;55982;51.476;7.552;2023-03-26T04:09:44;98710.81;;;7.06;100.00
68941;BME280;55982;51.476;7.552;2023-03-26T04:12:10;98705.59;;;7.06;100.00
68941;BME280;55982;51.476;7.552;2023-03-26T04:14:35;98699.91;;;6.96;100.00
68941;BME280;55982;51.476;7.552;2023-03-26T04:17:00;98702.63;;;6.93;100.00
68941;BME280;55982;51.476;7.552;2023-03-26T04:19:26;98703.41;;;6.95;100.00
68941;BME280;55982;51.476;7.552;2023-03-26T04:21:52;98699.16;;;6.93;100.00
68941;BME280;55982;51.476;7.552;2023-03-26T04:24:18;98690.63;;;6.89;100.00
68941;BME280;55982;51.476;7.552;2023-03-26T04:26:47;98687.34;;;6.84;100.00
68941;BME280;55982;51.476;7.552;2023-03-26T04:29:14;98693.53;;;6.80;100.00
68941;BME280;55982;51.476;7.552;2023-03-26T04:31:42;98680.66;;;6.77;100.00
68941;BME280;55982;51.476;7.552;2023-03-26T04:34:21;98674.69;;;6.75;100.00
68941;BME280;55982;51.476;7.552;2023-03-26T04:36:51;98681.56;;;6.76;100.00
68941;BME280;55982;51.476;7.552;2023-03-26T04:39:19;98663.34;;;6.78;100.00
68941;BME280;55982;51.476;7.552;2023-03-26T04:41:46;98663.63;;;6.70;100.00
68941;BME280;55982;51.476;7.552;2023-03-26T04:44:12;98655.69;;;6.73;100.00
68941;BME280;55982;51.476;7.552;2023-03-26T04:46:41;98657.91;;;6.84;100.00
68941;BME280;55982;51.476;7.552;2023-03-26T04:49:10;98655.31;;;6.84;100.00
68941;BME280;55982;51.476;7.552;2023-03-26T04:51:37;98657.63;;;6.91;100.00
68941;BME280;55982;51.476;7.552;2023-03-26T04:54:04;98651.06;;;7.04;100.00
68941;BME280;55982;51.476;7.552;2023-03-26T04:59:29;98645.28;;;7.19;100.00
68941;BME280;55982;51.476;7.552;2023-03-26T05:02:00;98643.59;;;7.18;100.00
68941;BME280;55982;51.476;7.552;2023-03-26T05:04:26;98631.41;;;7.19;100.00
68941;BME280;55982;51.476;7.552;2023-03-26T05:06:55;98633.97;;;7.20;100.00
68941;BME280;55982;51.476;7.552;2023-03-26T05:09:24;98628.72;;;7.22;100.00
68941;BME280;55982;51.476;7.552;2023-03-26T05:11:50;98631.03;;;7.29;100.00
68941;BME280;55982;51.476;7.552;2023-03-26T05:14:16;98629.06;;;7.34;100.00
68941;BME280;55982;51.476;7.552;2023-03-26T05:16:43;98625.81;;;7.29;100.00
68941;BME280;55982;51.476;7.552;2023-03-26T05:19:09;98616.06;;;7.34;100.00
68941;BME280;55982;51.476;7.552;2023-03-26T05:21:35;98617.41;;;7.45;100.00
68941;BME280;55982;51.476;7.552;2023-03-26T05:24:00;98619.63;;;7.54;100.00
68941;BME280;55982;51.476;7.552;2023-03-26T05:26:26;98618.66;;;7.56;100.00
68941;BME280;55982;51.476;7.552;2023-03-26T05:28:53;98608.09;;;7.61;100.00
68941;BME280;55982;51.476;7.552;2023-03-26T05:31:20;98607.16;;;7.62;100.00
68941;BME280;55982;51.476;7.552;2023-03-26T05:33:46;98601.81;;;7.65;100.00
68941;BME280;55982;51.476;7.552;2023-03-26T05:36:12;98597.28;;;7.70;100.00
68941;BME280;55982;51.476;7.552;2023-03-26T05:38:38;98590.44;;;7.67;100.00
68941;BME280;55982;51.476;7.552;2023-03-26T05:41:05;98589.50;;;7.70;100.00
68941;BME280;55982;51.476;7.552;2023-03-26T05:43:32;98590.28;;;7.72;100.00
68941;BME280;55982;51.476;7.552;2023-03-26T05:45:58;98580.66;;;7.74;100.00
68941;BME280;55982;51.476;7.552;2023-03-26T05:48:24;98581.34;;;7.77;100.00
68941;BME280;55982;51.476;7.552;2023-03-26T05:50:51;98578.75;;;7.77;100.00
68941;BME280;55982;51.476;7.552;2023-03-26T05:53:18;98574.13;;;7.84;100.00
68941;BME280;55982;51.476;7.552;2023-03-26T05:55:45;98569.59;;;7.89;100.00
68941;BME280;55982;51.476;7.552;2023-03-26T05:58:12;98568.66;;;7.90;100.00
68941;BME280;55982;51.476;7.552;2023-03-26T06:00:38;98559.16;;;7.89;100.00
68941;BME280;55982;51.476;7.552;2023-03-26T06:03:06;98560.72;;;7.93;100.00
68941;BME280;55982;51.476;7.552;2023-03-26T06:05:37;98560.72;;;7.93;100.00
68941;BME280;55982;51.476;7.552;2023-03-26T06:08:04;98557.22;;;7.94;100.00
68941;BME280;55982;51.476;7.552;2023-03-26T06:10:29;98547.31;;;8.02;100.00
68941;BME280;55982;51.476;7.552;2023-03-26T06:12:55;98553.56;;;7.98;100.00
68941;BME280;55982;51.476;7.552;2023-03-26T06:15:21;98544.97;;;7.96;100.00
68941;BME280;55982;51.476;7.552;2023-03-26T06:17:47;98540.91;;;8.09;100.00
68941;BME280;55982;51.476;7.552;2023-03-26T06:20:12;98533.06;;;8.10;100.00
68941;BME280;55982;51.476;7.552;2023-03-26T06:22:38;98528.03;;;8.06;100.00
68941;BME280;55982;51.476;7.552;2023-03-26T06:25:04;98525.03;;;8.15;100.00
68941;BME280;55982;51.476;7.552;2023-03-26T06:27:30;98530.38;;;8.12;100.00
68941;BME280;55982;51.476;7.552;2023-03-26T06:29:55;98523.19;;;8.17;100.00
68941;BME280;55982;51.476;7.552;2023-03-26T06:32:21;98524.13;;;8.16;100.00
68941;BME280;55982;51.476;7.552;2023-03-26T06:34:46;98518.25;;;8.11;100.00
68941;BME280;55982;51.476;7.552;2023-03-26T06:37:12;98515.94;;;8.25;100.00
68941;BME280;55982;51.476;7.552;2023-03-26T06:39:37;98522.34;;;8.16;100.00
68941;BME280;55982;51.476;7.552;2023-03-26T06:42:06;98526.09;;;8.31;100.00
68941;BME280;55982;51.476;7.552;2023-03-26T06:44:31;98521.50;;;8.36;100.00
68941;BME280;55982;51.476;7.552;2023-03-26T06:46:57;98517.06;;;8.38;100.00
68941;BME280;55982;51.476;7.552;2023-03-26T06:49:22;98519.69;;;8.38;100.00
68941;BME280;55982;51.476;7.552;2023-03-26T06:51:48;98524.69;;;8.43;100.00
68941;BME280;55982;51.476;7.552;2023-03-26T06:54:13;98529.69;;;8.47;100.00
68941;BME280;55982;51.476;7.552;2023-03-26T06:56:39;98531.44;;;8.47;100.00
68941;BME280;55982;51.476;7.552;2023-03-26T06:59:04;98531.44;;;8.47;100.00
68941;BME280;55982;51.476;7.552;2023-03-26T07:01:30;98521.88;;;8.47;100.00
68941;BME280;55982;51.476;7.552;2023-03-26T07:04:01;98527.22;;;8.44;100.00
68941;BME280;55982;51.476;7.552;2023-03-26T07:06:26;98530.59;;;8.46;100.00
68941;BME280;55982;51.476;7.552;2023-03-26T07:08:52;98530.06;;;8.58;100.00
68941;BME280;55982;51.476;7.552;2023-03-26T07:11:19;98518.69;;;8.59;100.00
68941;BME280;55982;51.476;7.552;2023-03-26T07:13:48;98517.38;;;8.69;100.00
68941;BME280;55982;51.476;7.552;2023-03-26T07:16:14;98511.53;;;8.64;100.00
68941;BME280;55982;51.476;7.552;2023-03-26T07:18:40;98510.75;;;8.62;100.00
68941;BME280;55982;51.476;7.552;2023-03-26T07:21:05;98509.47;;;8.52;100.00
68941;BME280;55982;51.476;7.552;2023-03-26T07:23:31;98512.38;;;8.46;100.00
68941;BME280;55982;51.476;7.552;2023-03-26T07:25:57;98509.75;;;8.46;100.00
68941;BME280;55982;51.476;7.552;2023-03-26T07:28:36;98508.06;;;8.45;100.00
68941;BME280;55982;51.476;7.552;2023-03-26T07:33:55;98506.66;;;8.38;100.00
68941;BME280;55982;51.476;7.552;2023-03-26T07:36:38;98500.03;;;8.31;100.00
68941;BME280;55982;51.476;7.552;2023-03-26T07:39:38;98495.25;;;8.20;100.00
68941;BME280;55982;51.476;7.552;2023-03-26T07:43:25;98493.13;;;8.30;100.00
68941;BME280;55982;51.476;7.552;2023-03-26T07:45:39;98491.44;;;8.29;100.00
68941;BME280;55982;51.476;7.552;2023-03-26T07:48:16;98489.34;;;8.37;100.00
68941;BME280;55982;51.476;7.552;2023-03-26T07:50:43;98487.63;;;8.36;100.00
68941;BME280;55982;51.476;7.552;2023-03-26T07:53:09;98482.41;;;8.36;100.00
68941;BME280;55982;51.476;7.552;2023-03-26T07:55:42;98484.25;;;8.34;100.00
68941;BME280;55982;51.476;7.552;2023-03-26T08:01:02;98483.84;;;8.43;100.00
68941;BME280;55982;51.476;7.552;2023-03-26T08:06:09;98479.75;;;8.56;100.00
68941;BME280;55982;51.476;7.552;2023-03-26T08:21:41;98466.44;;;8.62;100.00
68941;BME280;55982;51.476;7.552;2023-03-26T08:24:37;98460.72;;;8.73;100.00
68941;BME280;55982;51.476;7.552;2023-03-26T08:29:59;98458.19;;;8.71;100.00
68941;BME280;55982;51.476;7.552;2023-03-26T08:32:27;98459.31;;;8.66;100.00
68941;BME280;55982;51.476;7.552;2023-03-26T08:34:53;98454.97;;;8.66;100.00
68941;BME280;55982;51.476;7.552;2023-03-26T08:37:18;98454.38;;;8.60;100.00
68941;BME280;55982;51.476;7.552;2023-03-26T08:39:44;98451.22;;;8.53;100.00
68941;BME280;55982;51.476;7.552;2023-03-26T08:42:30;98453.03;;;8.51;100.00
68941;BME280;55982;51.476;7.552;2023-03-26T08:45:15;98451.16;;;8.36;100.00
68941;BME280;55982;51.476;7.552;2023-03-26T09:08:52;98438.91;;;8.38;100.00
68941;BME280;55982;51.476;7.552;2023-03-26T09:19:29;98442.16;;;8.43;100.00
68941;BME280;55982;51.476;7.552;2023-03-26T09:25:20;98441.72;;;8.52;100.00
68941;BME280;55982;51.476;7.552;2023-03-26T09:33:53;98434.50;;;8.57;100.00
68941;BME280;55982;51.476;7.552;2023-03-26T09:39:05;98441.47;;;8.75;100.00
68941;BME280;55982;51.476;7.552;2023-03-26T09:41:51;98441.28;;;8.61;100.00
68941;BME280;55982;51.476;7.552;2023-03-26T10:14:17;98427.16;;;8.48;100.00
68941;BME280;55982;51.476;7.552;2023-03-26T10:27:42;98424.38;;;8.51;100.00
68941;BME280;55982;51.476;7.552;2023-03-26T10:35:53;98413.25;;;8.66;100.00
68941;BME280;55982;51.476;7.552;2023-03-26T10:53:10;98397.75;;;8.63;100.00
68941;BME280;55982;51.476;7.552;2023-03-26T10:55:39;98396.06;;;8.62;100.00
68941;BME280;55982;51.476;7.552;2023-03-26T10:58:12;98391.75;;;8.61;100.00
68941;BME280;55982;51.476;7.552;2023-03-26T11:00:45;98391.28;;;8.53;100.00
68941;BME280;55982;51.476;7.552;2023-03-26T11:03:46;98395.53;;;8.37;100.00
68941;BME280;55982;51.476;7.552;2023-03-26T11:06:27;98398.63;;;8.45;100.00
68941;BME280;55982;51.476;7.552;2023-03-26T11:14:25;98392.97;;;8.54;100.00
68941;BME280;55982;51.476;7.552;2023-03-26T11:17:17;98383.34;;;8.73;100.00
68941;BME280;55982;51.476;7.552;2023-03-26T11:20:19;98393.09;;;8.51;100.00
68941;BME280;55982;51.476;7.552;2023-03-26T11:26:04;98389.13;;;8.44;100.00
68941;BME280;55982;51.476;7.552;2023-03-26T11:31:38;98392.56;;;8.97;100.00
68941;BME280;55982;51.476;7.552;2023-03-26T11:34:16;98384.72;;;8.80;100.00
68941;BME280;55982;51.476;7.552;2023-03-26T11:36:52;98385.34;;;8.68;100.00
68941;BME280;55982;51.476;7.552;2023-03-26T11:39:23;98380.13;;;8.68;100.00
68941;BME280;55982;51.476;7.552;2023-03-26T11:41:52;98370.75;;;8.47;100.00
68941;BME280;55982;51.476;7.552;2023-03-26T11:46:50;98375.94;;;8.10;100.00
68941;BME280;55982;51.476;7.552;2023-03-26T11:49:18;98378.34;;;7.96;100.00
68941;BME280;55982;51.476;7.552;2023-03-26T11:51:46;98374.56;;;8.03;100.00
68941;BME280;55982;51.476;7.552;2023-03-26T11:54:13;98362.72;;;7.96;100.00
68941;BME280;55982;51.476;7.552;2023-03-26T11:56:53;98370.88;;;8.07;100.00
68941;BME280;55982;51.476;7.552;2023-03-26T11:59:46;98364.66;;;8.29;100.00
68941;BME280;55982;51.476;7.552;2023-03-26T12:02:22;98360.44;;;8.44;100.00
68941;BME280;55982;51.476;7.552;2023-03-26T12:05:09;98356.63;;;8.51;100.00
68941;BME280;55982;51.476;7.552;2023-03-26T12:07:50;98348.03;;;8.49;100.00
68941;BME280;55982;51.476;7.552;2023-03-26T12:10:36;98351.47;;;8.68;100.00
68941;BME280;55982;51.476;7.552;2023-03-26T12:13:34;98353.63;;;8.77;100.00
68941;BME280;55982;51.476;7.552;2023-03-26T12:16:20;98353.31;;;8.83;100.00
68941;BME280;55982;51.476;7.552;2023-03-26T12:18:57;98341.09;;;8.67;100.00
68941;BME280;55982;51.476;7.552;2023-03-26T12:21:24;98340.59;;;8.42;100.00
68941;BME280;55982;51.476;7.552;2023-03-26T12:26:18;98336.94;;;8.80;100.00
68941;BME280;55982;51.476;7.552;2023-03-26T12:28:51;98341.34;;;9.13;100.00
68941;BME280;55982;51.476;7.552;2023-03-26T12:31:17;98338.06;;;8.93;100.00
68941;BME280;55982;51.476;7.552;2023-03-26T12:34:05;98338.44;;;9.02;100.00
68941;BME280;55982;51.476;7.552;2023-03-26T12:36:32;98351.72;;;9.48;100.00
68941;BME280;55982;51.476;7.552;2023-03-26T12:38:59;98338.22;;;9.40;100.00
68941;BME280;55982;51.476;7.552;2023-03-26T12:41:38;98332.38;;;9.52;100.00
68941;BME280;55982;51.476;7.552;2023-03-26T12:44:37;98329.19;;;9.12;100.00
68941;BME280;55982;51.476;7.552;2023-03-26T12:47:14;98334.88;;;9.03;100.00
68941;BME280;55982;51.476;7.552;2023-03-26T12:49:42;98335.06;;;8.83;100.00
68941;BME280;55982;51.476;7.552;2023-03-26T12:52:34;98335.66;;;8.88;100.00
68941;BME280;55982;51.476;7.552;2023-03-26T13:00:46;98341.72;;;8.36;100.00
68941;BME280;55982;51.476;7.552;2023-03-26T13:06:21;98331.13;;;8.92;100.00
68941;BME280;55982;51.476;7.552;2023-03-26T13:24:44;98312.25;;;10.18;100.00
68941;BME280;55982;51.476;7.552;2023-03-26T13:27:39;98319.81;;;9.91;100.00
68941;BME280;55982;51.476;7.552;2023-03-26T13:30:31;98313.88;;;9.72;100.00
68941;BME280;55982;51.476;7.552;2023-03-26T13:38:19;98311.81;;;10.70;100.00
68941;BME280;55982;51.476;7.552;2023-03-26T13:46:47;98310.19;;;10.38;100.00
68941;BME280;55982;51.476;7.552;2023-03-26T13:49:04;98308.31;;;9.78;100.00
68941;BME280;55982;51.476;7.552;2023-03-26T13:51:56;98302.16;;;9.31;100.00
68941;BME280;55982;51.476;7.552;2023-03-26T13:54:30;98305.38;;;9.36;100.00
68941;BME280;55982;51.476;7.552;2023-03-26T13:57:07;98308.78;;;9.53;100.00
68941;BME280;55982;51.476;7.552;2023-03-26T13:59:40;98306.09;;;9.39;100.00
68941;BME280;55982;51.476;7.552;2023-03-26T14:02:16;98309.84;;;9.16;100.00
68941;BME280;55982;51.476;7.552;2023-03-26T14:04:46;98314.97;;;9.02;100.00
68941;BME280;55982;51.476;7.552;2023-03-26T14:07:20;98321.38;;;8.95;100.00
68941;BME280;55982;51.476;7.552;2023-03-26T14:12:26;98333.34;;;8.65;100.00
68941;BME280;55982;51.476;7.552;2023-03-26T14:15:05;98332.09;;;8.55;100.00
68941;BME280;55982;51.476;7.552;2023-03-26T14:37:07;98338.25;;;9.22;100.00
68941;BME280;55982;51.476;7.552;2023-03-26T14:42:32;98341.13;;;9.34;100.00
68941;BME280;55982;51.476;7.552;2023-03-26T14:53:41;98361.25;;;9.14;100.00
68941;BME280;55982;51.476;7.552;2023-03-26T14:56:32;98350.84;;;8.97;100.00
68941;BME280;55982;51.476;7.552;2023-03-26T15:10:14;98371.22;;;8.72;100.00
68941;BME280;55982;51.476;7.552;2023-03-26T15:13:04;98380.28;;;8.82;100.00
68941;BME280;55982;51.476;7.552;2023-03-26T15:23:48;98390.81;;;9.15;100.00
68941;BME280;55982;51.476;7.552;2023-03-26T15:32:15;98413.69;;;8.39;100.00
68941;BME280;55982;51.476;7.552;2023-03-26T15:38:41;98424.22;;;8.17;100.00
68941;BME280;55982;51.476;7.552;2023-03-26T15:40:34;98429.44;;;8.17;100.00
68941;BME280;55982;51.476;7.552;2023-03-26T15:48:32;98441.09;;;7.90;100.00
68941;BME280;55982;51.476;7.552;2023-03-26T15:54:19;98443.47;;;7.76;100.00
68941;BME280;55982;51.476;7.552;2023-03-26T15:57:07;98459.47;;;7.87;100.00
68941;BME280;55982;51.476;7.552;2023-03-26T16:04:54;98472.19;;;7.54;100.00
68941;BME280;55982;51.476;7.552;2023-03-26T16:07:39;98470.16;;;7.61;100.00
68941;BME280;55982;51.476;7.552;2023-03-26T16:34:50;98518.16;;;7.33;100.00
68941;BME280;55982;51.476;7.552;2023-03-26T16:48:48;98539.31;;;7.24;100.00
68941;BME280;55982;51.476;7.552;2023-03-26T16:51:24;98544.78;;;7.18;100.00
68941;BME280;55982;51.476;7.552;2023-03-26T16:54:03;98547.78;;;7.29;100.00
68941;BME280;55982;51.476;7.552;2023-03-26T17:05:05;98581.44;;;7.12;100.00
68941;BME280;55982;51.476;7.552;2023-03-26T17:10:12;98594.81;;;7.02;100.00
68941;BME280;55982;51.476;7.552;2023-03-26T17:12:58;98596.41;;;7.06;100.00
68941;BME280;55982;51.476;7.552;2023-03-26T17:15:54;98608.63;;;7.04;100.00
68941;BME280;55982;51.476;7.552;2023-03-26T17:18:37;98607.97;;;6.97;100.00
68941;BME280;55982;51.476;7.552;2023-03-26T17:21:18;98621.31;;;7.11;100.00
68941;BME280;55982;51.476;7.552;2023-03-26T17:24:00;98624.44;;;6.98;100.00
68941;BME280;55982;51.476;7.552;2023-03-26T17:29:31;98633.72;;;6.82;100.00
68941;BME280;55982;51.476;7.552;2023-03-26T17:32:11;98644.34;;;6.76;100.00
68941;BME280;55982;51.476;7.552;2023-03-26T17:42:33;98660.00;;;6.74;100.00
68941;BME280;55982;51.476;7.552;2023-03-26T17:45:21;98659.81;;;6.79;100.00
68941;BME280;55982;51.476;7.552;2023-03-26T17:47:52;98668.75;;;6.72;100.00
68941;BME280;55982;51.476;7.552;2023-03-26T17:50:56;98674.56;;;6.78;100.00
68941;BME280;55982;51.476;7.552;2023-03-26T17:53:27;98678.34;;;6.70;100.00
68941;BME280;55982;51.476;7.552;2023-03-26T17:55:56;98679.81;;;6.77;100.00
68941;BME280;55982;51.476;7.552;2023-03-26T17:58:30;98683.63;;;6.68;100.00
68941;BME280;55982;51.476;7.552;2023-03-26T18:03:38;98696.91;;;6.59;100.00
68941;BME280;55982;51.476;7.552;2023-03-26T18:06:13;98698.69;;;6.59;100.00
68941;BME280;55982;51.476;7.552;2023-03-26T18:16:36;98720.41;;;6.56;100.00
68941;BME280;55982;51.476;7.552;2023-03-26T18:19:09;98728.47;;;6.48;100.00
68941;BME280;55982;51.476;7.552;2023-03-26T18:21:44;98729.63;;;6.40;100.00
68941;BME280;55982;51.476;7.552;2023-03-26T18:24:17;98737.59;;;6.35;100.00
68941;BME280;55982;51.476;7.552;2023-03-26T18:26:45;98740.31;;;6.31;100.00
68941;BME280;55982;51.476;7.552;2023-03-26T18:32:25;98744.22;;;6.18;100.00
68941;BME280;55982;51.476;7.552;2023-03-26T18:34:59;98750.16;;;6.21;100.00
68941;BME280;55982;51.476;7.552;2023-03-26T18:37:34;98754.50;;;6.21;100.00
68941;BME280;55982;51.476;7.552;2023-03-26T18:40:21;98762.47;;;6.16;100.00
68941;BME280;55982;51.476;7.552;2023-03-26T18:42:48;98757.41;;;6.12;100.00
68941;BME280;55982;51.476;7.552;2023-03-26T18:47:47;98773.91;;;6.11;100.00
68941;BME280;55982;51.476;7.552;2023-03-26T18:50:17;98772.38;;;6.04;100.00
68941;BME280;55982;51.476;7.552;2023-03-26T18:52:46;98786.34;;;6.00;100.00
68941;BME280;55982;51.476;7.552;2023-03-26T18:55:13;98787.38;;;5.94;100.00
68941;BME280;55982;51.476;7.552;2023-03-26T18:57:40;98790.78;;;5.96;100.00
68941;BME280;55982;51.476;7.552;2023-03-26T19:00:23;98796.91;;;5.94;100.00
68941;BME280;55982;51.476;7.552;2023-03-26T19:02:58;98804.69;;;5.94;100.00
68941;BME280;55982;51.476;7.552;2023-03-26T19:05:25;98811.09;;;5.84;100.00
68941;BME280;55982;51.476;7.552;2023-03-26T19:07:54;98804.84;;;5.89;100.00
68941;BME280;55982;51.476;7.552;2023-03-26T19:10:20;98815.31;;;5.86;100.00
68941;BME280;55982;51.476;7.552;2023-03-26T19:13:10;98809.00;;;5.95;100.00
68941;BME280;55982;51.476;7.552;2023-03-26T19:15:37;98825.38;;;5.97;100.00
68941;BME280;55982;51.476;7.552;2023-03-26T19:18:05;98832.13;;;6.02;100.00